Palm Harbor, Florida
Current Conditions -  °F | °C
As of 6:55 AM on Monday 24 Nov 2014 (Local Time) from KCLW Reporting Station
Haze Haze  
Wind Chill: 72°   Ceiling: 300
Heat Index: 72°   Visibility: 4mi
Dew Point: 72°   Wind: 8mph
Humidity: 100%   Direction: 180°S
Pressure: 29.94"   Gusts: NA
Location:  28.08°N, 82.74°W
Report Text: KCLW 241155Z AUTO 18007KT 4SM BR OVC003 22/22 A2994 RMK AO2
Loading
Personal Weather Stations






























Interactive Weather Map New forecast layout! Learn more

10-Day Weather Forecast

Advertisements
Track Severe Weather on mobile